Lechfeld, Germany

9:57 AM CEST on September 01, 2015 (GMT +0200)
Lechfeld | | Change Station
CLOSE
Current Station
Personal Weather Station
Location: Klosterlechfeld, BAYERN
Elevation: 1850 ft
Nearby Weather Stations

Elev 1850 ft 48.15 °N, 10.83 °E | Updated 56 minutes ago

Clear
Clear
70.0 °F
Feels Like 70.0 °F
N
2.2
Wind Variable Wind from SSW
Gusts 5.3 mph

Today
High -- | Low -- °F
--% Chance of Precip.
Yesterday
High -- | Low -- °F
Precip. -- in
6:33 AM 7:58 PM
Waning Gibbous, 90% visible
Pressure 29.86 in
Visibility -9999.0 miles
Clouds
Dew Point 59 °F
Humidity 68%
Rainfall 0.00 in
Snow Depth Not available.
UV Not available.
Pollen Not available.
Air Quality Not available.
Flu Activity Not available.
METAR EDMA 010750Z 18004KT 130V230 CAVOK 24/13 Q1011 RMK ATIS QUE
Pressure 29.86 in
Visibility -9999.0 miles
Clouds
Dew Point 59 °F
Humidity 68%
Rainfall 0.00 in
Snow Depth Not available.
UV Not available.
Pollen Not available.
Air Quality Not available.
Flu Activity Not available.
METAR EDMA 010750Z 18004KT 130V230 CAVOK 24/13 Q1011 RMK ATIS QUE

10-Day Weather Forecast

×

Almanac

Astronomy

Sep. 01, 2015 Rise Set
Actual Time
Civil Twilight
Nautical Twilight
Astronomical Twilight
Moon
Length of Visible Light
Length of Day
Tomorrow will be .
, % of the Moon is Illuminated

Today's Extremes

Country Highs Country Lows

Community

WunderPhotos

Upload Photos

1,851,488 photos uploaded!

WunderBlogs® & News

Nearby

Air Quality

  Air Quality AQ Index Pollutant
Not available.

Snow Depth

Station Depth Elevation

Earthquake Activity

City Distance Mag. Time & Date
Minimum magnitude displayed is 2.5.

Coastal Water Temperatures

Place Temperature

Stations

Nearby Weather Stations

Station Location Temp. Windchill Dew Point Humidity Wind Precip. Elev Updated Type